Time;durP1;ratioP1;P1;durP2;ratioP2;P2;SDS_P1;SDS_P2;PMS_P1;PMS_P2;Temp;Humidity;BMP_temperature;BMP_pressure;BME280_temperature;BME280_humidity;BME280_pressure;Samples;Min_cycle;Max_cycle;Signal;HPM_P1;HPM_P2
2022/02/09 00:02:29;;;;;;;8.73;7.07;;;6.70;91.80;;;5.43;87.02;99293.41;5093220;28;20497;-75
2022/02/09 00:05:08;;;;;;;6.93;6.23;;;6.70;91.50;;;5.50;86.41;99303.38;5097895;28;20497;-74
2022/02/09 00:07:41;;;;;;;7.40;6.23;;;6.70;91.30;;;5.53;86.43;99307.56;5095785;28;20446;-75
2022/02/09 00:10:08;;;;;;;6.83;5.60;;;6.70;91.40;;;5.62;85.62;99298.63;5097201;28;20435;-75
2022/02/09 00:12:41;;;;;;;7.63;5.90;;;6.80;90.80;;;5.60;85.75;99294.38;5095605;28;20840;-74
2022/02/09 00:15:22;;;;;;;5.80;5.30;;;6.90;90.70;;;5.47;85.69;99289.41;5097826;28;20497;-75
2022/02/09 00:17:56;;;;;;;8.07;6.67;;;6.80;90.90;;;5.56;86.02;99293.88;5095717;28;20455;-75
2022/02/09 00:20:54;;;;;;;7.07;5.50;;;6.80;90.80;;;5.53;85.88;99286.97;5095996;28;20443;-74
2022/02/09 00:23:56;;;;;;;6.40;5.60;;;6.80;90.90;;;5.46;86.25;99285.03;5095325;28;20501;-75
2022/02/09 00:29:30;;;;;;;5.77;4.90;;;6.80;90.90;;;5.58;85.26;99297.25;5095018;28;20500;-75
2022/02/09 00:35:10;;;;;;;5.47;4.97;;;6.80;90.80;;;5.51;85.33;99274.69;5096111;28;20483;-76
2022/02/09 00:38:02;;;;;;;6.93;6.07;;;6.80;90.60;;;5.49;85.61;99287.41;5094877;28;20833;-77
2022/02/09 01:38:39;;;;;;;7.40;5.60;;;6.70;91.40;;;5.33;86.63;99280.88;5091877;28;20459;-74
2022/02/09 01:42:12;;;;;;;6.80;6.00;;;6.70;91.70;;;5.49;86.44;99282.91;5094605;28;20890;-73
2022/02/09 01:57:50;;;;;;;7.43;5.50;;;6.80;91.50;;;5.39;87.11;99277.63;5095007;28;20459;-75
2022/02/09 02:00:17;;;;;;;6.10;5.00;;;6.70;91.40;;;5.38;86.57;99264.34;5094583;28;20829;-75
2022/02/09 02:02:45;;;;;;;6.50;4.97;;;6.70;91.60;;;5.31;87.37;99263.28;5094879;28;20515;-75
2022/02/09 02:05:14;;;;;;;7.93;5.13;;;6.70;91.60;;;5.43;86.94;99255.88;5095446;28;20514;-74
2022/02/09 02:07:48;;;;;;;6.47;5.00;;;6.70;91.60;;;5.33;86.66;99255.94;5110861;28;20454;-74
2022/02/09 02:10:18;;;;;;;8.23;5.57;;;6.70;91.60;;;5.24;87.92;99252.31;5110248;28;20440;-75
2022/02/09 02:13:09;;;;;;;6.80;4.57;;;6.60;91.80;;;5.36;87.16;99251.09;5090201;28;20854;-74
2022/02/09 02:16:04;;;;;;;6.20;5.50;;;6.70;91.90;;;5.49;86.45;99231.13;5093953;28;20432;-74
2022/02/09 02:18:33;;;;;;;6.07;4.73;;;6.70;91.40;;;5.49;87.02;99239.16;5091833;28;20460;-74
2022/02/09 02:21:12;;;;;;;5.67;5.17;;;6.80;91.40;;;5.50;86.75;99236.34;5094286;28;20489;-74
2022/02/09 02:24:01;;;;;;;7.13;5.70;;;6.80;91.30;;;5.36;86.55;99245.72;5094314;28;20435;-73
2022/02/09 02:26:42;;;;;;;10.70;6.00;;;6.70;91.40;;;5.33;87.47;99235.31;5094137;28;20436;-75
2022/02/09 02:29:31;;;;;;;9.00;5.60;;;6.70;91.50;;;5.38;87.36;99233.06;5094430;28;20443;-75
2022/02/09 02:32:26;;;;;;;8.53;5.70;;;6.70;92.10;;;5.34;86.64;99230.81;5091939;28;20530;-74
2022/02/09 02:46:31;;;;;;;7.30;5.30;;;6.70;91.40;;;5.41;87.27;99228.38;5087448;28;20447;-73
2022/02/09 03:11:36;;;;;;;11.27;5.83;;;6.50;92.40;;;5.27;87.62;99241.31;5072266;28;20791;-74
2022/02/09 03:14:10;;;;;;;6.13;5.40;;;6.60;92.10;;;5.19;88.87;99234.03;5073492;28;20916;-74
2022/02/09 03:16:41;;;;;;;7.17;5.17;;;6.50;93.70;;;5.27;87.33;99240.44;5089744;28;20445;-74
2022/02/09 03:19:41;;;;;;;7.43;5.53;;;6.60;91.80;;;5.22;87.06;99236.38;5089145;28;20455;-73
2022/02/09 03:22:21;;;;;;;8.47;6.00;;;6.60;91.80;;;5.19;87.77;99239.38;5090689;28;20463;-73
2022/02/09 03:25:25;;;;;;;6.00;5.30;;;6.50;92.00;;;5.20;87.81;99234.84;5093826;28;20440;-74
2022/02/09 03:31:01;;;;;;;8.40;5.77;;;6.50;92.50;;;5.29;87.31;99235.78;5091692;28;20436;-73
2022/02/09 03:44:47;;;;;;;6.80;5.73;;;6.50;92.30;;;5.19;87.85;99215.25;5077395;28;20427;-74
2022/02/09 03:56:10;;;;;;;6.60;5.27;;;6.50;92.10;;;5.12;87.91;99197.25;5067198;28;20528;-72
2022/02/09 03:58:35;;;;;;;6.17;5.43;;;6.50;91.90;;;5.22;87.59;99206.06;5070836;28;20932;-73
2022/02/09 04:01:03;;;;;;;6.90;5.27;;;6.50;91.90;;;5.20;86.66;99191.97;5070978;28;20431;-73
2022/02/09 04:03:30;;;;;;;8.87;5.07;;;6.50;91.50;;;5.23;86.41;99197.03;5071060;28;20523;-73
2022/02/09 04:05:57;;;;;;;6.03;5.30;;;6.50;91.40;;;5.19;86.60;99188.47;5070859;28;20441;-73
2022/02/09 04:08:29;;;;;;;6.67;5.30;;;6.50;91.50;;;5.19;86.51;99180.44;5067572;28;20940;-74
2022/02/09 04:11:05;;;;;;;6.17;4.87;;;6.50;91.30;;;5.27;86.38;99185.03;5086015;28;20437;-73
2022/02/09 04:13:41;;;;;;;6.30;5.00;;;6.60;90.90;;;5.30;86.99;99187.41;5062135;28;20459;-74
2022/02/09 04:16:16;;;;;;;7.30;4.53;;;6.60;91.40;;;5.37;85.25;99172.38;5066412;28;20429;-75
2022/02/09 04:19:02;;;;;;;5.97;5.37;;;6.70;90.80;;;5.25;85.54;99189.69;5050874;28;20436;-74
2022/02/09 04:38:09;;;;;;;6.17;4.33;;;6.70;89.70;;;5.20;85.01;99170.53;5050304;28;20434;-74
2022/02/09 04:43:43;;;;;;;4.20;3.80;;;6.60;89.30;;;5.24;84.98;99178.13;5051344;28;20456;-74
2022/02/09 04:46:59;;;;;;;6.50;4.37;;;6.60;89.30;;;5.30;85.25;99170.47;5085873;28;20467;-73
2022/02/09 04:52:20;;;;;;;4.77;4.07;;;6.60;88.90;;;5.43;83.28;99173.59;5067198;28;20484;-74
2022/02/09 04:54:52;;;;;;;4.93;4.43;;;6.70;88.60;;;5.32;83.27;99169.31;5070556;28;20486;-75
2022/02/09 04:57:31;;;;;;;4.83;4.43;;;6.70;87.70;;;5.20;83.58;99167.84;5069339;28;20440;-74
2022/02/09 05:00:14;;;;;;;6.90;4.40;;;6.60;87.60;;;5.33;83.07;99171.00;5051551;28;20980;-75
2022/02/09 05:03:13;;;;;;;4.47;4.07;;;6.60;87.50;;;5.33;82.45;99165.66;5046067;28;20524;-74
2022/02/09 05:25:12;;;;;;;5.57;4.20;;;6.70;85.90;;;5.40;81.74;99160.50;5056619;28;20916;-74
2022/02/09 05:27:50;;;;;;;4.53;4.10;;;6.70;85.10;;;5.50;80.84;99163.97;5056102;28;20465;-74
2022/02/09 05:30:19;;;;;;;4.97;3.43;;;6.70;85.10;;;5.38;81.04;99158.00;5054791;28;20436;-75
2022/02/09 05:32:47;;;;;;;4.63;4.20;;;6.70;84.30;;;5.47;80.61;99155.38;5054370;28;20556;-75
2022/02/09 05:35:21;;;;;;;5.40;4.30;;;6.70;84.80;;;5.38;80.62;99149.09;5056255;28;20445;-73
2022/02/09 05:37:48;;;;;;;4.40;3.47;;;6.70;84.00;;;5.53;79.47;99155.59;5056838;28;20920;-72
2022/02/09 05:40:15;;;;;;;5.80;4.23;;;6.80;83.50;;;5.64;79.17;99162.56;5052955;28;20493;-77
2022/02/09 05:42:42;;;;;;;4.40;3.87;;;6.90;83.30;;;5.55;80.56;99158.13;5055817;28;20441;-77
2022/02/09 05:45:11;;;;;;;4.70;3.93;;;6.80;83.30;;;5.49;80.47;99158.75;5055693;28;20442;-73
2022/02/09 05:50:36;;;;;;;6.10;4.40;;;6.80;82.90;;;5.51;79.50;99165.66;5021159;28;20452;-74
2022/02/09 05:53:11;;;;;;;3.77;3.47;;;6.80;83.10;;;5.61;78.64;99165.56;5064702;28;20491;-73
2022/02/09 05:55:47;;;;;;;7.93;4.30;;;6.90;82.30;;;5.60;79.39;99179.09;5054563;28;20441;-73
2022/02/09 05:58:33;;;;;;;4.90;4.00;;;6.80;82.40;;;5.50;78.75;99176.50;5055599;28;20495;-75
2022/02/09 06:01:02;;;;;;;5.60;4.23;;;6.80;82.20;;;5.63;79.26;99176.97;5051671;28;20446;-78
2022/02/09 06:03:30;;;;;;;9.03;3.97;;;6.80;82.60;;;5.76;77.99;99183.75;5055690;28;20499;-78
2022/02/09 06:05:58;;;;;;;4.97;4.40;;;6.90;81.80;;;5.77;77.21;99188.13;5071209;28;20477;-79
2022/02/09 06:08:25;;;;;;;5.10;4.47;;;7.00;81.40;;;5.72;77.35;99174.34;5071422;28;20515;-77
2022/02/09 06:11:06;;;;;;;4.40;4.00;;;7.00;81.10;;;5.68;76.88;99180.00;5055789;28;20453;-82
2022/02/09 06:13:49;;;;;;;5.07;4.57;;;7.00;80.90;;;5.69;76.82;99180.88;5056915;28;20449;-86
2022/02/09 06:21:43;;;;;;;5.83;4.43;;;6.90;80.80;;;5.46;77.88;99169.78;5056718;28;20432;-82
2022/02/09 06:24:10;;;;;;;5.60;4.33;;;6.80;81.00;;;5.72;76.79;99166.31;5055388;28;20521;-81
2022/02/09 06:26:37;;;;;;;5.77;4.90;;;6.90;80.90;;;5.72;76.39;99177.03;5052783;28;20524;-80
2022/02/09 06:29:04;;;;;;;5.47;4.97;;;6.90;80.50;;;5.73;76.78;99171.50;5077641;28;20766;-83
2022/02/09 06:31:34;;;;;;;6.57;5.37;;;7.00;80.40;;;5.75;76.97;99174.03;5075540;28;21046;-81
2022/02/09 06:34:03;;;;;;;6.37;5.10;;;7.00;80.30;;;5.51;77.67;99162.09;5089137;28;20884;-81
2022/02/09 06:36:30;;;;;;;11.23;5.53;;;6.90;80.30;;;5.50;77.63;99172.00;5092371;28;20468;-81
2022/02/09 06:39:04;;;;;;;6.90;5.10;;;6.80;80.60;;;5.42;77.48;99163.06;5094573;28;20440;-82
2022/02/09 06:41:31;;;;;;;5.33;4.83;;;6.80;80.50;;;5.60;76.72;99173.75;5086109;28;20440;-74
2022/02/09 06:43:58;;;;;;;5.20;3.90;;;6.80;80.00;;;5.73;75.76;99170.69;5061857;28;20441;-77
2022/02/09 06:46:26;;;;;;;5.00;4.47;;;6.90;79.80;;;5.68;76.13;99173.81;5054711;28;20519;-76
2022/02/09 06:48:53;;;;;;;5.67;5.17;;;7.00;79.80;;;5.71;76.33;99178.03;5069671;28;20820;-76
2022/02/09 06:51:26;;;;;;;5.97;4.93;;;6.90;79.80;;;5.70;76.04;99165.63;5052905;28;20529;-75
2022/02/09 06:54:02;;;;;;;5.07;4.57;;;7.00;79.70;;;5.67;75.85;99172.97;5053705;28;20468;-74
2022/02/09 06:56:43;;;;;;;7.23;5.60;;;7.00;79.60;;;5.77;75.91;99180.94;5053816;28;20935;-76
2022/02/09 06:59:13;;;;;;;5.30;4.60;;;7.00;79.70;;;5.36;75.79;99105.53;5054511;28;20433;-76
2022/02/09 07:01:40;;;;;;;5.60;4.77;;;7.00;79.30;;;5.70;75.34;99176.34;5052859;28;20507;-76
2022/02/09 07:04:07;;;;;;;6.80;4.80;;;7.00;79.30;;;5.86;75.54;99173.78;5054431;28;20463;-75
2022/02/09 07:06:37;;;;;;;5.00;4.50;;;7.10;79.20;;;5.70;75.91;99179.03;5054338;28;20437;-77
2022/02/09 07:09:05;;;;;;;6.27;5.50;;;7.00;79.30;;;5.77;75.78;99180.09;5053702;28;20932;-75
2022/02/09 07:11:32;;;;;;;9.60;5.20;;;7.00;79.30;;;5.75;76.56;99182.09;5052897;28;20499;-76
2022/02/09 07:13:59;;;;;;;5.10;4.60;;;7.00;79.70;;;5.93;76.94;99182.88;5053793;28;20524;-75
2022/02/09 07:16:28;;;;;;;5.77;5.03;;;7.10;80.00;;;5.88;75.55;99179.84;5069093;28;20525;-76
2022/02/09 07:18:55;;;;;;;8.07;5.30;;;7.20;79.70;;;5.81;76.10;99176.94;5052568;28;20607;-76
2022/02/09 07:21:25;;;;;;;4.73;4.23;;;7.20;79.60;;;5.67;75.76;99170.28;5053397;28;20476;-75
2022/02/09 07:23:56;;;;;;;6.35;5.85;;;7.00;79.50;;;5.93;77.39;99172.16;5051944;28;20439;-78
2022/02/09 07:26:28;;;;;;;6.10;5.50;;;7.10;80.60;;;5.98;75.15;99170.84;5051927;28;20183;-76
2022/02/09 07:28:56;;;;;;;6.50;5.20;;;7.20;79.30;;;5.94;74.60;99168.47;5052439;28;20445;-76
2022/02/09 07:31:24;;;;;;;11.83;5.77;;;7.30;79.00;;;5.88;75.17;99168.25;5054020;28;20439;-76
2022/02/09 07:33:51;;;;;;;6.03;5.27;;;7.20;78.90;;;5.85;75.50;99160.53;5053051;28;20523;-76
2022/02/09 07:36:19;;;;;;;7.40;5.50;;;7.20;78.90;;;6.05;75.16;99162.03;5052335;28;20491;-76
2022/02/09 07:38:47;;;;;;;6.40;5.70;;;7.30;79.30;;;6.18;74.87;99176.88;5053565;28;20426;-75
2022/02/09 07:41:15;;;;;;;5.70;5.10;;;7.50;79.30;;;6.27;74.79;99177.75;5052656;28;20506;-76
2022/02/09 07:43:48;;;;;;;6.60;5.60;;;7.50;79.00;;;5.81;74.99;99109.03;5053620;28;20522;-74
2022/02/09 07:49:05;;;;;;;7.60;5.27;;;7.30;78.70;;;6.31;74.61;99174.59;5052479;28;20476;-75
2022/02/09 07:51:43;;;;;;;8.77;5.83;;;7.50;79.10;;;6.07;74.40;99165.41;5053459;28;20445;-77
2022/02/09 07:54:11;;;;;;;7.13;6.40;;;7.50;78.50;;;5.94;74.71;99176.53;5052559;28;20433;-83
2022/02/09 07:56:41;;;;;;;7.10;6.40;;;7.30;78.40;;;6.24;75.48;99171.72;5053481;28;21006;-80
2022/02/09 07:59:11;;;;;;;9.37;6.33;;;7.40;79.80;;;6.16;73.76;99170.81;5054743;28;20491;-81
2022/02/09 08:01:39;;;;;;;7.23;6.53;;;7.50;78.30;;;6.40;74.36;99171.97;5052468;28;20534;-78
2022/02/09 08:04:07;;;;;;;6.90;6.30;;;7.60;78.70;;;6.34;73.43;99162.72;5053647;28;20521;-78
2022/02/09 08:06:34;;;;;;;6.93;6.20;;;7.60;78.20;;;6.38;73.67;99174.81;5053896;28;20805;-78
2022/02/09 08:09:08;;;;;;;8.60;7.63;;;7.60;78.10;;;6.52;74.48;99159.91;5052900;28;20987;-81
2022/02/09 08:11:41;;;;;;;6.90;6.20;;;7.70;78.80;;;6.15;74.00;99161.94;5053268;28;20441;-80
2022/02/09 08:28:20;;;;;;;7.43;6.73;;;8.00;77.60;;;6.61;72.05;99168.88;5052842;28;20990;-78
2022/02/09 08:31:23;;;;;;;8.73;7.17;;;7.90;76.80;;;6.47;73.05;99160.44;5053172;28;20457;-78
2022/02/09 08:33:49;;;;;;;8.57;7.10;;;7.80;77.20;;;6.41;72.99;99153.00;5051568;28;20468;-81
2022/02/09 08:36:18;;;;;;;7.43;6.73;;;7.80;77.20;;;6.73;72.81;99145.25;5068927;28;20495;-75
2022/02/09 08:38:45;;;;;;;7.87;7.07;;;7.90;77.80;;;6.58;72.40;99153.91;5055075;28;20445;-80
2022/02/09 08:41:12;;;;;;;8.70;7.30;;;7.90;77.10;;;6.88;71.44;99153.50;5058043;28;20434;-82
2022/02/09 08:43:40;;;;;;;7.60;6.80;;;8.00;77.10;;;6.77;71.59;99146.59;5059882;28;20521;-79
2022/02/09 08:46:09;;;;;;;8.40;7.43;;;8.10;76.70;;;6.76;71.95;99147.59;5074879;28;20449;-75
2022/02/09 08:48:36;;;;;;;7.00;6.33;;;8.00;76.70;;;7.00;71.09;99152.19;5057068;28;20441;-83
2022/02/09 08:51:03;;;;;;;7.93;7.13;;;8.10;76.60;;;7.18;71.61;99148.53;5056843;28;20532;-68
2022/02/09 08:53:33;;;;;;;7.87;7.00;;;8.30;77.20;;;7.35;71.68;99144.88;5058485;28;21052;-87
2022/02/09 08:56:00;;;;;;;8.00;7.17;;;8.50;77.50;;;7.14;71.26;99147.19;5059585;28;20437;-86
2022/02/09 08:58:27;;;;;;;7.60;6.90;;;8.40;76.40;;;7.20;72.55;99146.50;5063170;28;20915;-86
2022/02/09 09:01:06;;;;;;;8.00;6.90;;;8.40;77.10;;;6.80;69.89;99084.47;5076509;28;20468;-84
2022/02/09 09:03:42;;;;;;;7.87;6.90;;;8.40;75.80;;;7.39;70.40;99147.22;5067152;28;20437;-86
2022/02/09 09:06:15;;;;;;;8.23;6.80;;;8.60;76.30;;;7.70;70.73;99141.19;5077323;28;20433;-87
2022/02/09 09:08:49;;;;;;;7.13;6.53;;;8.70;76.70;;;7.94;69.15;99154.56;5058692;28;20913;-89
2022/02/09 09:11:45;;;;;;;8.63;7.73;;;9.00;75.90;;;7.52;68.22;99150.25;5058331;28;20460;-77
2022/02/09 09:17:29;;;;;;;7.70;6.20;;;8.70;74.50;;;7.58;68.47;99141.50;5057195;28;20457;-84
2022/02/09 09:31:33;;;;;;;7.40;5.90;;;9.00;73.70;;;7.78;67.12;99131.25;5056278;28;20440;-71
2022/02/09 10:01:56;;;;;;;5.83;4.73;;;9.70;72.10;;;8.49;64.54;99125.16;5076371;28;20536;-89
2022/02/09 10:04:43;;;;;;;4.43;4.03;;;9.70;71.00;;;8.58;64.32;99117.09;5065131;28;20493;-89
2022/02/09 10:35:25;;;;;;;5.00;4.60;;;9.90;69.90;;;8.74;65.27;99122.38;5035439;28;20487;-80
2022/02/09 10:37:52;;;;;;;5.77;5.27;;;9.90;70.30;;;8.43;65.19;99107.03;5035451;28;20456;-80
2022/02/09 10:40:49;;;;;;;5.90;5.30;;;9.80;70.20;;;8.71;65.45;99114.63;5033477;28;20517;-81
2022/02/09 10:43:30;;;;;;;6.37;5.60;;;9.90;70.60;;;9.04;63.46;99106.38;5021053;28;20592;-80
2022/02/09 10:46:11;;;;;;;6.23;5.70;;;10.10;69.50;;;8.98;64.44;99096.28;5035194;28;20445;-81
2022/02/09 10:48:50;;;;;;;4.90;4.47;;;10.10;69.30;;;8.99;63.86;99102.53;5039613;28;20906;-80
2022/02/09 10:51:29;;;;;;;5.67;5.10;;;10.10;68.80;;;8.59;64.73;99106.13;5043633;28;20775;-81
2022/02/09 10:54:11;;;;;;;5.80;5.10;;;9.90;70.10;;;8.37;65.33;99083.47;5041238;28;20520;-78
2022/02/09 10:56:40;;;;;;;4.97;4.47;;;9.80;70.00;;;8.66;64.75;99079.31;5034578;28;20434;-79
2022/02/09 10:59:10;;;;;;;7.50;4.90;;;9.90;70.30;;;8.98;63.68;99085.50;5033094;28;20525;-77
2022/02/09 11:01:38;;;;;;;6.30;4.67;;;10.00;68.70;;;8.83;64.10;99092.69;5032601;28;20522;-80
2022/02/09 11:04:07;;;;;;;4.50;4.10;;;10.00;68.60;;;8.64;64.96;99092.13;5034473;28;20508;-79
2022/02/09 11:06:37;;;;;;;4.37;3.97;;;9.90;69.60;;;8.66;64.76;99090.09;5033183;28;20868;-79
2022/02/09 11:09:06;;;;;;;4.97;4.57;;;9.80;70.10;;;8.77;64.09;99100.47;5034006;28;20906;-76
2022/02/09 11:11:37;;;;;;;5.97;4.63;;;10.00;69.10;;;8.88;64.34;99084.94;5037031;28;20438;-76
2022/02/09 11:14:04;;;;;;;5.03;4.53;;;10.00;69.10;;;8.83;64.19;99093.53;5036365;28;20524;-75
2022/02/09 11:16:34;;;;;;;6.60;5.23;;;10.10;68.80;;;8.72;64.43;99081.31;5034667;28;20461;-76
2022/02/09 11:19:02;;;;;;;4.53;4.13;;;10.00;69.10;;;8.71;64.83;99078.78;5050219;28;20434;-75
2022/02/09 11:21:32;;;;;;;4.80;4.40;;;10.00;69.00;;;8.29;65.08;99027.78;5037678;28;20922;-76
2022/02/09 11:24:06;;;;;;;5.33;4.83;;;9.90;70.30;;;8.78;64.82;99080.59;5054286;28;20755;-74
2022/02/09 11:26:46;;;;;;;4.30;3.90;;;10.00;69.10;;;8.75;64.88;99078.25;5038450;28;20441;-74
2022/02/09 11:29:45;;;;;;;6.00;4.17;;;10.10;69.30;;;8.92;64.94;99083.53;5035887;28;20434;-76
2022/02/09 11:32:40;;;;;;;4.10;3.80;;;10.10;69.50;;;9.22;64.65;99064.78;5034402;28;20521;-76
2022/02/09 11:35:28;;;;;;;7.00;5.47;;;10.30;69.60;;;9.24;63.08;99078.94;5037414;28;20443;-77
2022/02/09 11:38:14;;;;;;;6.97;4.23;;;10.50;68.80;;;8.97;65.00;99067.66;5035725;28;20458;-74
2022/02/09 11:40:49;;;;;;;5.37;4.40;;;10.30;69.30;;;9.01;64.70;99063.59;5035301;28;20529;-76
2022/02/09 11:43:59;;;;;;;4.57;4.10;;;10.30;69.70;;;9.02;64.78;99061.75;5035554;28;20517;-76
2022/02/09 12:08:42;;;;;;;4.80;4.27;;;10.80;68.50;;;9.92;62.61;99048.44;5033566;28;20469;-75
2022/02/09 12:10:23;;;;;;;3.87;3.50;;;11.10;67.90;;;9.68;63.48;99038.75;5035721;28;20438;-72
2022/02/09 12:13:07;;;;;;;4.70;3.77;;;10.90;68.30;;;9.77;62.88;99030.38;5034800;28;20430;-72
2022/02/09 12:16:31;;;;;;;4.20;3.80;;;10.90;68.40;;;9.72;63.31;99026.56;5037799;28;20430;-73
2022/02/09 12:18:56;;;;;;;3.90;3.57;;;10.90;68.60;;;9.77;62.93;99029.53;5037096;28;20457;-72
2022/02/09 12:21:39;;;;;;;3.50;3.20;;;11.00;68.60;;;9.83;63.06;99023.41;5037290;28;20438;-72
2022/02/09 12:24:25;;;;;;;4.20;3.80;;;11.00;68.10;;;9.95;61.96;99018.38;5037612;28;20439;-72
2022/02/09 12:26:58;;;;;;;3.33;3.00;;;11.10;68.00;;;9.60;62.79;99008.13;5035621;28;20528;-72
2022/02/09 12:29:32;;;;;;;3.93;3.27;;;11.00;67.60;;;9.82;62.13;99002.00;5035585;28;20504;-72
2022/02/09 12:32:00;;;;;;;3.40;3.10;;;11.10;67.80;;;9.76;62.93;98999.03;5036707;28;20446;-79
2022/02/09 12:34:30;;;;;;;3.60;3.10;;;11.00;68.50;;;9.87;62.95;98997.72;5037043;28;20946;-84
2022/02/09 12:36:58;;;;;;;5.05;3.70;;;11.10;68.40;;;9.79;64.13;99000.53;5036156;28;20483;-85
2022/02/09 12:39:26;;;;;;;4.27;3.87;;;11.00;68.50;;;9.50;64.30;99000.31;5037449;28;20206;-84
2022/02/09 12:41:59;;;;;;;4.20;3.80;;;10.90;68.30;;;9.43;64.35;99012.00;5038045;28;20443;-83
2022/02/09 12:44:26;;;;;;;4.00;2.77;;;10.70;68.60;;;9.45;64.11;99007.25;5036808;28;20461;-83
2022/02/09 12:47:12;;;;;;;3.20;2.90;;;10.60;68.50;;;9.39;63.28;99006.13;5037567;28;20490;-83
2022/02/09 12:49:42;;;;;;;4.87;2.37;;;10.60;68.10;;;9.30;64.42;98986.50;5051885;28;20447;-85
2022/02/09 12:52:10;;;;;;;3.70;3.40;;;10.60;68.50;;;9.41;65.06;98992.47;5035873;28;20442;-81
2022/02/09 12:54:37;;;;;;;4.30;3.00;;;10.70;69.00;;;9.54;63.30;98987.28;5037569;28;20497;-84
2022/02/09 12:57:05;;;;;;;3.40;3.10;;;10.80;68.40;;;9.71;64.29;98987.09;5037465;28;20533;-83
2022/02/09 12:59:32;;;;;;;3.70;3.33;;;10.90;68.60;;;9.78;63.11;98982.63;5053968;28;20477;-82
2022/02/09 13:01:59;;;;;;;3.80;2.93;;;11.00;68.20;;;9.96;63.55;98989.53;5053336;28;20486;-84
2022/02/09 13:04:33;;;;;;;3.63;3.43;;;11.10;68.50;;;10.00;63.09;98974.63;5037179;28;20988;-82
2022/02/09 13:07:02;;;;;;;2.67;2.47;;;11.20;68.50;;;10.43;61.81;98977.44;5035770;28;21001;-83
2022/02/09 13:09:30;;;;;;;3.53;3.17;;;11.50;68.00;;;10.17;62.37;98957.16;5052194;28;20489;-82
2022/02/09 13:11:58;;;;;;;3.50;3.20;;;11.50;67.70;;;10.25;62.02;98974.31;5036324;28;20533;-81
2022/02/09 13:14:31;;;;;;;3.50;2.90;;;11.50;67.50;;;10.08;62.34;98977.19;5051612;28;20508;-80
2022/02/09 13:17:22;;;;;;;3.40;2.97;;;11.40;67.30;;;9.70;63.49;98982.72;5036720;28;20465;-82
2022/02/09 14:03:03;;;;;;;3.83;2.40;;;10.90;68.70;;;9.42;64.31;98891.66;5051397;28;20526;-83
2022/02/09 14:11:10;;;;;;;2.90;2.67;;;10.90;69.00;;;9.52;65.03;98924.59;5036604;28;20527;-72
2022/02/09 14:13:57;;;;;;;4.30;2.60;;;10.80;68.80;;;9.58;64.95;98929.22;5047831;28;20468;-77
2022/02/09 14:16:37;;;;;;;2.77;2.53;;;10.80;68.80;;;9.89;64.33;98935.44;5070327;28;20913;-79
2022/02/09 14:52:58;;;;;;;3.10;2.80;;;10.60;69.70;;;9.58;66.13;98891.47;5071267;28;20448;-75
2022/02/09 14:55:32;;;;;;;5.70;2.50;;;10.70;69.80;;;9.53;65.55;98893.03;5069028;28;20546;-78
2022/02/09 14:58:10;;;;;;;3.00;2.60;;;10.70;70.00;;;9.47;66.13;98886.53;5070888;28;20783;-76
2022/02/09 15:00:50;;;;;;;5.10;2.67;;;10.60;69.90;;;9.38;66.12;98884.97;5072894;28;20491;-74
2022/02/09 15:03:35;;;;;;;5.63;3.57;;;10.50;70.10;;;9.38;66.43;98879.56;5074646;28;20421;-75
2022/02/09 15:08:57;;;;;;;2.67;2.47;;;10.50;70.30;;;9.34;66.50;98885.34;5064053;28;20448;-74
2022/02/09 15:11:31;;;;;;;3.27;2.73;;;10.50;70.30;;;9.32;66.68;98876.59;5070175;28;20436;-76
2022/02/09 15:14:10;;;;;;;3.30;2.97;;;10.50;70.50;;;9.36;66.77;98871.66;5070689;28;20464;-76
2022/02/09 15:16:46;;;;;;;4.37;3.03;;;10.50;70.50;;;9.32;66.58;98876.59;5070300;28;20440;-76
2022/02/09 15:22:03;;;;;;;5.40;3.07;;;10.40;70.60;;;9.22;66.67;98865.25;5065334;28;20553;-76
2022/02/09 15:24:40;;;;;;;2.70;2.50;;;10.40;70.90;;;9.13;67.68;98866.34;5069376;28;20432;-75
2022/02/09 15:27:13;;;;;;;4.93;2.63;;;10.30;71.00;;;9.19;67.66;98868.34;5070122;28;20445;-76
2022/02/09 15:29:41;;;;;;;2.80;2.40;;;10.30;71.10;;;9.17;67.49;98870.34;5069515;28;20439;-77
2022/02/09 15:32:18;;;;;;;3.43;2.60;;;10.40;71.30;;;9.23;67.63;98869.63;5068462;28;20971;-73
2022/02/09 15:34:48;;;;;;;2.90;2.60;;;10.30;71.30;;;9.16;67.97;98866.84;5068387;28;20567;-75
2022/02/09 15:37:21;;;;;;;3.90;2.60;;;10.30;71.40;;;9.20;66.90;98868.13;5069023;28;20449;-74
2022/02/09 15:39:53;;;;;;;2.93;2.70;;;10.30;71.30;;;9.04;68.24;98868.31;5068120;28;20444;-74
2022/02/09 15:56:22;;;;;;;3.40;2.93;;;9.90;73.40;;;8.59;70.36;98852.91;5054549;28;20495;-76
2022/02/09 15:59:17;;;;;;;7.13;2.83;;;9.80;73.60;;;8.62;70.62;98854.41;5054740;28;20449;-74
2022/02/09 16:10:29;;;;;;;4.83;3.30;;;9.60;74.50;;;7.84;71.91;98809.53;5059032;28;20437;-83
2022/02/09 16:24:28;;;;;;;5.40;4.23;;;8.90;76.80;;;7.54;75.02;98848.88;5178097;27;20532;-86
2022/02/09 16:38:07;;;;;;;6.30;4.40;;;8.40;79.90;;;7.24;77.11;98857.56;5173212;27;20467;-86
2022/02/09 16:46:15;;;;;;;7.10;4.63;;;8.20;81.20;;;7.15;77.75;98853.22;5180949;27;20441;-87
2022/02/09 16:48:48;;;;;;;6.63;5.90;;;8.20;81.50;;;7.01;78.48;98844.88;5188248;27;20460;-86
2022/02/09 16:51:18;;;;;;;8.10;5.30;;;8.10;81.70;;;6.94;78.59;98852.78;5175584;27;20456;-86
2022/02/09 16:53:53;;;;;;;10.40;6.07;;;8.10;82.10;;;6.89;79.14;98851.59;5170047;27;20485;-86
2022/02/09 17:21:04;;;;;;;9.03;5.63;;;7.70;85.70;;;6.23;81.62;98805.03;5168698;27;20456;-87
2022/02/09 17:23:31;;;;;;;6.33;5.47;;;7.60;86.60;;;6.56;81.63;98862.41;5165693;27;20489;-86
2022/02/09 17:25:58;;;;;;;6.60;5.70;;;7.60;87.10;;;6.43;82.16;98849.50;5160765;27;20437;-86
2022/02/09 17:28:27;;;;;;;8.17;5.47;;;7.60;87.30;;;6.32;82.50;98859.53;5161811;27;20465;-86
2022/02/09 17:31:12;;;;;;;6.30;5.70;;;7.50;87.70;;;6.22;83.19;98858.88;5155323;27;20489;-84
2022/02/09 17:33:52;;;;;;;14.90;6.00;;;7.40;88.50;;;6.30;82.94;98855.38;5160610;27;20430;-87
2022/02/09 17:36:24;;;;;;;6.80;5.80;;;7.40;89.60;;;6.24;83.51;98849.66;5156580;27;20434;-81
2022/02/09 17:38:58;;;;;;;9.83;5.83;;;7.40;90.00;;;6.22;83.46;98853.53;5177639;27;20441;-83
2022/02/09 17:55:50;;;;;;;8.87;7.30;;;7.20;91.00;;;6.00;85.04;98854.97;5108699;27;20529;-88
2022/02/09 17:58:20;;;;;;;11.87;7.20;;;7.10;91.40;;;5.86;85.79;98854.63;5155440;27;20521;-87
2022/02/09 18:00:51;;;;;;;10.63;7.93;;;7.00;91.40;;;5.84;85.83;98848.56;5137121;27;20485;-87
2022/02/09 18:03:19;;;;;;;11.93;7.77;;;7.00;92.10;;;5.73;85.93;98848.88;5139248;27;20450;-83
2022/02/09 18:05:48;;;;;;;9.60;8.60;;;6.90;92.10;;;5.65;86.94;98850.53;5153741;27;20449;-86
2022/02/09 18:08:24;;;;;;;8.63;7.77;;;6.80;92.70;;;5.63;87.33;98844.50;5161020;27;20455;-89
2022/02/09 18:11:03;;;;;;;10.33;8.70;;;6.80;93.20;;;5.20;87.57;98790.06;5159020;27;20438;-84
2022/02/09 18:28:00;;;;;;;10.73;9.40;;;6.80;93.90;;;5.75;87.44;98836.16;5137726;27;20435;-85
2022/02/09 18:30:35;;;;;;;11.23;8.30;;;6.90;93.30;;;5.59;87.23;98821.69;5141684;27;20501;-88
2022/02/09 18:33:38;;;;;;;15.40;8.77;;;6.80;93.70;;;5.56;88.19;98835.44;5143640;27;20950;-84
2022/02/09 18:44:27;;;;;;;10.03;8.90;;;6.60;94.00;;;5.30;88.35;98822.94;5141106;27;20510;-88
2022/02/09 19:03:36;;;;;;;14.77;11.97;;;6.20;96.30;;;4.96;91.12;98808.56;5129437;27;20451;-84
2022/02/09 19:06:17;;;;;;;12.43;10.23;;;6.20;97.20;;;4.92;91.31;98817.06;5158164;27;20900;-85
2022/02/09 19:14:25;;;;;;;16.47;11.60;;;6.20;97.00;;;4.98;91.16;98824.47;5115873;27;20910;-86
2022/02/09 19:17:04;;;;;;;15.50;12.50;;;6.30;96.80;;;4.91;90.54;98828.78;5114335;27;20461;-84
2022/02/09 19:30:46;;;;;;;15.47;11.37;;;6.00;98.40;;;4.53;92.44;98829.91;5122180;27;20457;-84
2022/02/09 19:47:13;;;;;;;12.73;10.13;;;5.60;98.30;;;3.86;92.55;98778.72;5130441;27;20960;-81
2022/02/09 19:52:33;;;;;;;11.80;10.20;;;5.40;98.40;;;4.07;92.92;98834.53;5119410;27;20457;-79
2022/02/09 19:55:19;;;;;;;10.93;9.73;;;5.40;99.60;;;3.97;92.39;98822.09;5135221;27;20533;-84
2022/02/09 19:57:46;;;;;;;15.73;9.40;;;5.40;98.80;;;3.86;93.30;98819.63;5125436;27;20487;-85
2022/02/09 20:00:19;;;;;;;15.30;11.03;;;5.30;99.40;;;3.56;94.09;98789.59;5125808;27;21666;-83
2022/02/09 20:02:47;;;;;;;12.00;10.40;;;5.10;99.90;;;3.75;94.26;98814.53;5124498;27;20527;-83
2022/02/09 20:05:15;;;;;;;15.33;11.30;;;5.10;99.90;;;3.76;94.18;98830.41;5137286;27;20441;-83
2022/02/09 20:07:43;;;;;;;16.07;11.63;;;5.10;99.90;;;3.60;95.35;98820.41;5124919;27;20964;-85